Time;durP1;ratioP1;P1;durP2;ratioP2;P2;SDS_P1;SDS_P2;PMS_P1;PMS_P2;Temp;Humidity;BMP_temperature;BMP_pressure;BME280_temperature;BME280_humidity;BME280_pressure;Samples;Min_cycle;Max_cycle;Signal;HPM_P1;HPM_P2
2021/01/27 00:00:24;;;;;;;33.30;17.48;;;76.80;2176.00;;;;;;5134482;27;20088;-64
2021/01/27 00:02:49;;;;;;;33.63;17.90;;;52.10;2176.00;;;;;;5134615;27;20031;-65
2021/01/27 00:05:18;;;;;;;33.13;18.40;;;52.10;2176.00;;;;;;5134392;27;20019;-67
2021/01/27 00:07:44;;;;;;;31.15;17.98;;;52.10;2176.00;;;;;;5116182;27;20019;-63
2021/01/27 00:10:11;;;;;;;30.33;16.20;;;52.00;2201.60;;;;;;5134368;27;20034;-63
2021/01/27 00:12:37;;;;;;;30.60;16.88;;;52.00;2201.60;;;;;;5131725;27;20019;-66
2021/01/27 00:15:24;;;;;;;30.77;15.90;;;51.90;2201.60;;;;;;5134272;27;20384;-66
2021/01/27 00:17:50;;;;;;;35.10;18.00;;;51.90;2201.60;;;;;;5133452;27;20029;-63
2021/01/27 00:20:18;;;;;;;31.08;17.63;;;51.90;2201.60;;;;;;5134576;27;20022;-66
2021/01/27 00:22:44;;;;;;;31.75;18.50;;;51.90;2201.60;;;;;;5134237;27;20035;-67
2021/01/27 00:25:11;;;;;;;33.20;18.27;;;51.90;2227.20;;;;;;5134139;27;20057;-65
2021/01/27 00:27:37;;;;;;;31.23;18.30;;;51.90;2201.60;;;;;;5131164;27;20102;-66
2021/01/27 00:30:12;;;;;;;28.63;17.77;;;51.90;2201.60;;;;;;5133825;27;20114;-65
2021/01/27 00:32:38;;;;;;;32.10;17.65;;;51.90;2227.20;;;;;;5112935;27;20023;-64
2021/01/27 00:35:05;;;;;;;30.30;16.65;;;51.90;2227.20;;;;;;5134065;27;20349;-66
2021/01/27 00:37:30;;;;;;;31.80;17.58;;;51.90;2227.20;;;;;;5133914;27;20196;-65
2021/01/27 00:39:56;;;;;;;32.13;18.33;;;51.80;2227.20;;;;;;5133763;27;20110;-66
2021/01/27 00:42:22;;;;;;;36.25;19.52;;;51.80;2227.20;;;;;;5133976;27;20065;-66
2021/01/27 00:44:47;;;;;;;35.63;19.27;;;51.80;2227.20;;;;;;5133419;27;20019;-66
2021/01/27 00:47:13;;;;;;;30.25;17.23;;;51.80;2227.20;;;;;;5116611;27;20025;-66
2021/01/27 00:49:39;;;;;;;36.30;19.67;;;51.70;2227.20;;;;;;5134279;27;20068;-67
2021/01/27 00:52:05;;;;;;;32.97;17.63;;;51.70;2227.20;;;;;;5133102;27;20021;-65
2021/01/27 00:54:30;;;;;;;34.67;19.67;;;51.70;2227.20;;;;;;5134038;27;20380;-65
2021/01/27 00:56:56;;;;;;;34.45;18.27;;;51.80;2227.20;;;;;;5133478;27;20020;-66
2021/01/27 00:59:22;;;;;;;34.33;19.40;;;51.80;2227.20;;;;;;5133663;27;20102;-65
2021/01/27 01:01:48;;;;;;;32.97;19.00;;;51.80;2227.20;;;;;;5133864;27;20019;-66
2021/01/27 01:04:14;;;;;;;32.25;17.27;;;51.80;2227.20;;;;;;5133717;27;20375;-67
2021/01/27 01:06:40;;;;;;;32.78;17.90;;;51.80;2227.20;;;;;;5133485;27;20763;-66
2021/01/27 01:09:05;;;;;;;34.67;18.88;;;51.80;2227.20;;;;;;5133204;27;20023;-67
2021/01/27 01:11:31;;;;;;;38.88;18.88;;;51.80;2227.20;;;;;;5132915;27;20484;-67
2021/01/27 01:13:57;;;;;;;32.28;17.98;;;51.90;2227.20;;;;;;5133343;27;20385;-66
2021/01/27 01:16:23;;;;;;;32.22;17.20;;;51.90;2227.20;;;;;;5133752;27;20026;-66
2021/01/27 01:18:48;;;;;;;29.90;17.38;;;52.00;2227.20;;;;;;5135223;27;20376;-66
2021/01/27 01:21:14;;;;;;;29.27;16.52;;;52.10;2227.20;;;;;;5138564;27;20380;-66
2021/01/27 01:23:42;;;;;;;30.27;17.20;;;76.80;2227.20;;;;;;5138483;28;20177;-64
2021/01/27 01:26:07;;;;;;;31.77;18.08;;;76.80;2227.20;;;;;;5133302;28;20101;-67
2021/01/27 01:28:34;;;;;;;30.52;16.70;;;76.80;2227.20;;;;;;5133202;27;20129;-66
2021/01/27 01:31:00;;;;;;;32.05;17.63;;;76.80;2227.20;;;;;;5133429;28;20023;-67
2021/01/27 01:33:29;;;;;;;30.25;17.60;;;76.80;2227.20;;;;;;5132892;28;20023;-64
2021/01/27 01:35:55;;;;;;;34.17;19.17;;;76.80;2227.20;;;;;;5133088;28;20054;-62
2021/01/27 01:38:21;;;;;;;32.40;18.17;;;76.80;2227.20;;;;;;5133067;28;20042;-62
2021/01/27 01:40:56;;;;;;;30.40;17.48;;;76.80;2227.20;;;;;;5133190;28;20105;-66
2021/01/27 01:43:23;;;;;;;;;;;76.80;2227.20;;;;;;5131414;28;20019;-66
2021/01/27 01:45:55;;;;;;;31.10;17.00;;;52.10;2227.20;;;;;;5133115;28;19907;-67
2021/01/27 01:48:23;;;;;;;31.10;17.55;;;76.80;2227.20;;;;;;5130526;28;20027;-67
2021/01/27 01:51:10;;;;;;;31.58;17.80;;;52.10;2227.20;;;;;;5133157;28;20011;-67
2021/01/27 01:53:36;;;;;;;28.02;16.92;;;52.10;2227.20;;;;;;5132059;28;20525;-67
2021/01/27 01:56:05;;;;;;;31.35;18.45;;;52.10;2227.20;;;;;;5114540;28;20011;-66
2021/01/27 01:58:31;;;;;;;29.27;16.88;;;52.10;2227.20;;;;;;5114028;28;20054;-67
2021/01/27 02:00:59;;;;;;;29.80;17.88;;;76.80;2227.20;;;;;;5134631;27;20023;-67
2021/01/27 02:03:28;;;;;;;33.53;18.58;;;76.80;2227.20;;;;;;5136598;27;20019;-66
2021/01/27 02:05:55;;;;;;;39.05;22.20;;;76.80;2227.20;;;;;;5136699;27;20023;-66
2021/01/27 02:08:21;;;;;;;37.65;21.58;;;52.10;2227.20;;;;;;5136723;27;20478;-62
2021/01/27 02:10:47;;;;;;;39.08;22.20;;;52.00;2227.20;;;;;;5136558;27;20024;-65
2021/01/27 02:13:31;;;;;;;33.38;19.17;;;52.00;2227.20;;;;;;5136176;27;20429;-67
2021/01/27 02:16:08;;;;;;;32.58;18.50;;;52.00;2227.20;;;;;;5136564;27;20536;-66
2021/01/27 02:19:05;;;;;;;35.10;18.77;;;52.00;2227.20;;;;;;5136465;27;20023;-67
2021/01/27 02:22:10;;;;;;;33.35;18.02;;;51.90;2227.20;;;;;;5032167;28;20056;-63
2021/01/27 02:25:00;;;;;;;29.20;16.52;;;51.90;2227.20;;;;;;5032682;28;20037;-67
2021/01/27 02:27:31;;;;;;;29.17;16.15;;;51.80;2227.20;;;;;;5032884;28;20033;-65
2021/01/27 02:30:26;;;;;;;29.65;17.33;;;51.80;2227.20;;;;;;5032934;28;20527;-66
2021/01/27 02:33:18;;;;;;;31.58;17.52;;;51.70;2227.20;;;;;;4953896;29;20043;-66
2021/01/27 02:35:53;;;;;;;28.15;16.23;;;51.70;2227.20;;;;;;4950028;29;20126;-66
2021/01/27 02:38:25;;;;;;;31.17;17.90;;;51.70;2227.20;;;;;;4954718;29;20057;-68
2021/01/27 02:40:58;;;;;;;29.83;17.00;;;51.70;2227.20;;;;;;4954647;29;20038;-63
2021/01/27 02:43:42;;;;;;;30.17;16.35;;;51.70;2227.20;;;;;;4952688;29;20473;-66
2021/01/27 02:46:20;;;;;;;32.15;17.35;;;51.70;2227.20;;;;;;4954629;29;20035;-67
2021/01/27 02:49:09;;;;;;;29.10;16.20;;;51.80;2227.20;;;;;;4953012;29;20044;-67
2021/01/27 02:51:45;;;;;;;28.90;15.43;;;51.90;2227.20;;;;;;4954437;29;20039;-65
2021/01/27 02:54:19;;;;;;;27.40;15.50;;;51.90;2227.20;;;;;;4954506;29;20114;-66
2021/01/27 02:57:11;;;;;;;27.10;14.88;;;52.00;2227.20;;;;;;4952502;29;20039;-63
2021/01/27 02:59:41;;;;;;;23.67;14.15;;;52.00;2227.20;;;;;;5046484;28;20461;-67
2021/01/27 03:02:25;;;;;;;24.42;13.10;;;52.00;2227.20;;;;;;5052237;28;20228;-65
2021/01/27 03:05:06;;;;;;;20.60;11.98;;;52.00;2227.20;;;;;;5051307;28;20076;-67
2021/01/27 03:07:36;;;;;;;23.90;14.40;;;52.10;2227.20;;;;;;5052406;28;20056;-66
2021/01/27 03:10:08;;;;;;;20.25;12.65;;;52.10;2227.20;;;;;;5104819;27;20030;-69
2021/01/27 03:12:34;;;;;;;23.67;13.98;;;52.10;2227.20;;;;;;5135763;27;20019;-69
2021/01/27 03:15:00;;;;;;;24.15;13.98;;;76.80;2227.20;;;;;;5136223;27;20015;-69
2021/01/27 03:17:29;;;;;;;19.67;12.10;;;76.80;2227.20;;;;;;5135721;27;20460;-68
2021/01/27 03:20:26;;;;;;;21.38;12.27;;;76.90;2227.20;;;;;;5135251;27;20031;-68
2021/01/27 03:23:05;;;;;;;27.85;16.65;;;76.90;2227.20;;;;;;5133747;27;20035;-68
2021/01/27 03:25:37;;;;;;;38.10;21.05;;;77.00;2227.20;;;;;;5134275;27;20030;-67
2021/01/27 03:28:33;;;;;;;20.52;12.43;;;77.00;2227.20;;;;;;5132726;27;20059;-68
2021/01/27 03:31:00;;;;;;;34.97;19.65;;;77.00;2227.20;;;;;;5049189;28;20044;-67
2021/01/27 03:33:57;;;;;;;34.47;19.08;;;76.90;2227.20;;;;;;5051758;28;20514;-68
2021/01/27 03:36:24;;;;;;;22.50;13.00;;;77.00;2227.20;;;;;;5002624;28;20026;-68
2021/01/27 03:38:52;;;;;;;27.98;15.98;;;76.90;2227.20;;;;;;5002632;28;20423;-69
2021/01/27 03:41:34;;;;;;;22.63;13.15;;;76.90;2227.20;;;;;;5000504;28;20041;-68
2021/01/27 03:44:00;;;;;;;19.35;11.63;;;76.90;2227.20;;;;;;5001206;28;20109;-67
2021/01/27 03:46:28;;;;;;;18.88;11.90;;;76.90;2227.20;;;;;;5001844;28;20117;-68
2021/01/27 03:48:57;;;;;;;20.42;12.20;;;77.00;2227.20;;;;;;5002785;28;20495;-68
2021/01/27 03:51:26;;;;;;;20.35;11.77;;;76.90;2227.20;;;;;;5001281;28;20027;-68
2021/01/27 03:53:53;;;;;;;18.58;11.23;;;77.00;2227.20;;;;;;5000899;28;20479;-64
2021/01/27 03:56:42;;;;;;;21.05;12.02;;;77.00;2227.20;;;;;;5002844;28;20050;-68
2021/01/27 03:59:11;;;;;;;18.58;11.02;;;77.00;2227.20;;;;;;5001815;28;20068;-67
2021/01/27 04:01:50;;;;;;;15.27;9.55;;;76.90;2227.20;;;;;;5000703;28;20058;-68
2021/01/27 04:04:16;;;;;;;14.43;9.02;;;76.90;2227.20;;;;;;5000658;28;20030;-67
2021/01/27 04:06:42;;;;;;;17.25;9.07;;;76.80;2227.20;;;;;;5018383;28;20039;-66
2021/01/27 04:09:08;;;;;;;15.32;9.07;;;52.10;2227.20;;;;;;5071177;28;20028;-68
2021/01/27 04:11:34;;;;;;;14.15;8.77;;;52.00;2227.20;;;;;;5054491;28;20502;-67
2021/01/27 04:14:00;;;;;;;13.50;8.48;;;51.90;2227.20;;;;;;5131624;27;20090;-68
2021/01/27 04:16:25;;;;;;;12.55;8.40;;;51.80;2227.20;;;;;;5134646;27;20019;-65
2021/01/27 04:18:51;;;;;;;13.70;8.73;;;51.70;2227.20;;;;;;5134279;27;20028;-68
2021/01/27 04:21:17;;;;;;;13.10;7.97;;;51.70;2227.20;;;;;;5134185;27;20016;-67
2021/01/27 04:23:43;;;;;;;13.85;8.60;;;51.60;2227.20;;;;;;5133451;27;20019;-68
2021/01/27 04:26:09;;;;;;;15.55;9.23;;;51.50;2227.20;;;;;;5134198;27;20023;-67
2021/01/27 04:28:34;;;;;;;12.98;8.20;;;51.50;2227.20;;;;;;5133180;27;20628;-65
2021/01/27 04:31:00;;;;;;;16.13;9.10;;;51.40;2227.20;;;;;;5131572;27;20015;-68
2021/01/27 04:33:26;;;;;;;14.48;8.98;;;51.40;2227.20;;;;;;5133961;27;20498;-68
2021/01/27 04:35:53;;;;;;;14.27;9.38;;;51.40;2227.20;;;;;;5134156;27;20027;-67
2021/01/27 04:38:19;;;;;;;14.70;9.05;;;51.30;2227.20;;;;;;5134181;27;20051;-66
2021/01/27 04:40:47;;;;;;;16.02;9.55;;;51.30;2227.20;;;;;;5134085;27;20083;-66
2021/01/27 04:43:36;;;;;;;16.55;9.90;;;51.20;2227.20;;;;;;5133751;27;20015;-67
2021/01/27 04:46:27;;;;;;;16.23;9.85;;;51.20;2227.20;;;;;;5112770;27;20120;-67
2021/01/27 04:49:27;;;;;;;16.95;10.35;;;51.20;2227.20;;;;;;5133128;27;20023;-66
2021/01/27 04:52:14;;;;;;;120.30;40.08;;;51.20;2227.20;;;;;;5059548;28;20154;-67
2021/01/27 04:55:00;;;;;;;140.80;42.45;;;51.20;2227.20;;;;;;5061198;28;20028;-66
2021/01/27 04:57:31;;;;;;;188.75;49.00;;;51.20;2227.20;;;;;;5058133;28;20029;-65
2021/01/27 05:00:10;;;;;;;316.55;77.93;;;51.20;2227.20;;;;;;5058994;28;20033;-67
2021/01/27 05:02:36;;;;;;;359.67;113.28;;;51.20;2227.20;;;;;;5059137;28;20029;-65
2021/01/27 05:05:10;;;;;;;423.33;138.23;;;26.50;2201.60;;;;;;5059277;28;20078;-67
2021/01/27 05:07:45;;;;;;;364.30;122.07;;;26.50;2201.60;;;;;;5059088;28;20025;-68
2021/01/27 05:10:15;;;;;;;545.50;205.18;;;26.40;2201.60;;;;;;5043265;28;20397;-67
2021/01/27 05:12:52;;;;;;;448.80;195.75;;;26.40;2201.60;;;;;;5056587;28;20472;-67
2021/01/27 05:15:19;;;;;;;144.35;73.97;;;26.30;2201.60;;;;;;5059006;28;20439;-67
2021/01/27 05:17:46;;;;;;;73.43;42.00;;;26.30;2201.60;;;;;;5060471;28;20048;-67
2021/01/27 05:20:15;;;;;;;62.05;37.08;;;26.30;2201.60;;;;;;5057754;28;20039;-67
2021/01/27 05:22:42;;;;;;;25.05;15.93;;;26.20;2201.60;;;;;;5042783;28;20047;-67
2021/01/27 05:25:14;;;;;;;20.92;13.27;;;26.30;2201.60;;;;;;5060175;28;20029;-66
2021/01/27 05:27:42;;;;;;;24.80;14.25;;;26.30;2201.60;;;;;;5060626;28;20099;-66
2021/01/27 05:30:37;;;;;;;23.73;14.05;;;26.30;2201.60;;;;;;5131239;28;20042;-66
2021/01/27 05:33:03;;;;;;;24.20;13.50;;;26.20;2201.60;;;;;;5128700;28;20429;-66
2021/01/27 05:35:35;;;;;;;25.63;14.82;;;26.20;2201.60;;;;;;5135454;27;20050;-67
2021/01/27 05:38:23;;;;;;;24.98;13.98;;;26.20;2201.60;;;;;;5116104;27;20027;-67
2021/01/27 05:40:51;;;;;;;20.85;13.25;;;26.10;2201.60;;;;;;5135618;27;20023;-66
2021/01/27 05:43:23;;;;;;;26.45;14.68;;;26.10;2201.60;;;;;;5137409;27;20038;-67
2021/01/27 05:45:49;;;;;;;24.17;15.13;;;26.10;2201.60;;;;;;5137390;27;20084;-66
2021/01/27 05:48:34;;;;;;;22.83;15.07;;;26.10;2201.60;;;;;;5134674;27;20023;-66
2021/01/27 05:51:02;;;;;;;29.35;17.48;;;26.10;2201.60;;;;;;5134381;27;20030;-66
2021/01/27 05:53:30;;;;;;;25.98;15.23;;;26.10;2201.60;;;;;;5134383;27;20037;-65
2021/01/27 05:55:55;;;;;;;26.83;16.13;;;26.10;2201.60;;;;;;5134596;27;20046;-66
2021/01/27 05:58:21;;;;;;;25.60;15.20;;;26.10;2201.60;;;;;;5131791;27;20053;-67
2021/01/27 06:00:47;;;;;;;25.77;15.80;;;26.10;2201.60;;;;;;5137485;27;20114;-65
2021/01/27 06:03:23;;;;;;;31.67;18.83;;;26.10;2201.60;;;;;;5137794;27;20019;-66
2021/01/27 06:05:49;;;;;;;53.50;30.52;;;26.10;2201.60;;;;;;5135148;27;20117;-66
2021/01/27 06:08:21;;;;;;;53.30;29.55;;;26.10;2201.60;;;;;;5135355;27;20019;-66
2021/01/27 06:10:48;;;;;;;33.08;18.02;;;26.20;2201.60;;;;;;5135310;27;20015;-66
2021/01/27 06:13:16;;;;;;;35.80;20.15;;;26.20;2201.60;;;;;;5136604;27;20464;-67
2021/01/27 06:15:42;;;;;;;28.83;15.35;;;26.30;2201.60;;;;;;5134366;27;20076;-66
2021/01/27 06:18:22;;;;;;;40.55;20.63;;;26.20;2201.60;;;;;;5136559;27;20026;-66
2021/01/27 06:20:48;;;;;;;45.65;23.00;;;26.30;2201.60;;;;;;5134623;27;20027;-66
2021/01/27 06:23:35;;;;;;;48.80;23.98;;;26.30;2201.60;;;;;;5136640;27;20015;-66
2021/01/27 06:26:10;;;;;;;54.38;26.42;;;26.40;2201.60;;;;;;5136500;27;20046;-66
2021/01/27 06:29:04;;;;;;;60.53;30.35;;;26.40;2201.60;;;;;;5136190;27;20061;-64
2021/01/27 06:31:32;;;;;;;59.55;28.15;;;51.20;2227.20;;;;;;5134711;27;20063;-66
2021/01/27 06:34:19;;;;;;;37.95;19.65;;;51.20;2227.20;;;;;;5136553;27;20102;-66
2021/01/27 06:36:51;;;;;;;59.10;28.20;;;51.20;2227.20;;;;;;5134118;27;20140;-66
2021/01/27 06:39:40;;;;;;;36.38;18.80;;;51.30;2227.20;;;;;;5135972;27;20130;-67
2021/01/27 06:42:12;;;;;;;32.30;17.05;;;51.50;2227.20;;;;;;5114573;27;20396;-67
2021/01/27 06:45:02;;;;;;;41.00;21.00;;;51.60;2227.20;;;;;;5136102;27;20046;-67
2021/01/27 06:47:52;;;;;;;26.23;16.20;;;51.70;2227.20;;;;;;5133648;27;20027;-67
2021/01/27 06:50:37;;;;;;;27.50;16.02;;;51.70;2227.20;;;;;;5135994;27;20023;-67
2021/01/27 06:53:26;;;;;;;30.77;16.55;;;51.70;2227.20;;;;;;5133378;27;20031;-67
2021/01/27 06:56:04;;;;;;;30.33;18.33;;;51.60;2227.20;;;;;;5134758;27;20023;-67
2021/01/27 06:58:43;;;;;;;34.53;19.50;;;51.60;2227.20;;;;;;5134022;27;20511;-67
2021/01/27 07:01:18;;;;;;;30.85;17.08;;;51.60;2227.20;;;;;;5134331;27;20012;-66
2021/01/27 07:04:13;;;;;;;32.97;17.80;;;51.60;2227.20;;;;;;5133221;27;20808;-62
2021/01/27 07:07:01;;;;;;;31.25;17.98;;;51.60;2227.20;;;;;;5135177;27;20019;-67
2021/01/27 07:09:32;;;;;;;33.92;18.85;;;51.60;2227.20;;;;;;5133830;27;20076;-66
2021/01/27 07:12:23;;;;;;;51.03;28.33;;;51.60;2227.20;;;;;;5135312;27;20414;-66
2021/01/27 07:15:08;;;;;;;48.92;26.48;;;51.70;2227.20;;;;;;5133597;27;20031;-65
2021/01/27 07:17:40;;;;;;;36.78;19.38;;;51.70;2227.20;;;;;;5134277;27;20030;-67
2021/01/27 07:20:20;;;;;;;56.97;27.27;;;76.80;2227.20;;;;;;5130501;27;20026;-66
2021/01/27 07:23:22;;;;;;;37.63;21.25;;;77.00;2227.20;;;;;;5131751;27;20095;-65
2021/01/27 07:26:10;;;;;;;37.42;19.98;;;77.00;2227.20;;;;;;5114583;27;20105;-61
2021/01/27 07:29:09;;;;;;;38.03;22.60;;;77.00;2227.20;;;;;;5134200;27;20070;-65
2021/01/27 07:31:46;;;;;;;41.20;24.05;;;77.30;2227.20;;;;;;5031817;28;20119;-67
2021/01/27 07:34:27;;;;;;;40.17;23.95;;;128.20;2022.40;;;;;;5031912;28;20025;-65
2021/01/27 07:37:13;;;;;;;43.92;25.25;;;179.60;1740.80;;;;;;5028513;28;20025;-63
2021/01/27 07:39:42;;;;;;;50.25;24.27;;;230.40;1510.40;;;;;;5028527;28;20419;-66
2021/01/27 07:42:34;;;;;;;64.68;28.38;;;231.20;1382.40;;;;;;5012338;28;20118;-62
2021/01/27 07:45:18;;;;;;;80.30;33.97;;;256.60;1305.60;;;;;;5028396;28;20383;-67
2021/01/27 07:47:59;;;;;;;62.28;25.92;;;256.90;1280.00;;;;;;5028827;28;20071;-68
2021/01/27 07:50:25;;;;;;;53.70;24.25;;;231.10;1356.80;;;;;;5026525;28;20091;-66
2021/01/27 07:53:12;;;;;;;55.13;24.55;;;205.70;1433.60;;;;;;5028712;28;20470;-68
2021/01/27 07:55:46;;;;;;;53.05;22.85;;;230.70;1459.20;;;;;;5027836;28;20069;-63
2021/01/27 07:58:23;;;;;;;47.88;22.25;;;230.60;1433.60;;;;;;5011393;28;20454;-63
2021/01/27 08:01:11;;;;;;;37.03;19.77;;;205.20;1536.00;;;;;;5012074;28;20026;-66
2021/01/27 08:04:02;;;;;;;27.35;18.55;;;179.90;1638.40;;;;;;5027809;28;20044;-68
2021/01/27 08:06:38;;;;;;;29.30;18.20;;;179.30;1715.20;;;;;;5026456;28;20418;-65
2021/01/27 08:09:05;;;;;;;58.85;32.47;;;154.30;1766.40;;;;;;5126687;27;20061;-63
2021/01/27 08:11:37;;;;;;;36.97;21.23;;;205.10;1612.80;;;;;;5132362;27;20060;-68
2021/01/27 08:14:05;;;;;;;31.75;21.38;;;230.80;1433.60;;;;;;5128938;27;20376;-66
2021/01/27 08:16:34;;;;;;;28.40;19.13;;;231.20;1382.40;;;;;;5132210;27;20413;-68
2021/01/27 08:19:07;;;;;;;33.38;22.65;;;256.80;1280.00;;;;;;5131715;27;20051;-69
2021/01/27 08:21:52;;;;;;;25.38;18.80;;;282.50;1228.80;;;;;;5131086;27;20030;-69
2021/01/27 08:24:36;;;;;;;27.05;21.30;;;308.10;1152.00;;;;;;5124131;27;20027;-67
2021/01/27 08:27:31;;;;;;;29.23;22.17;;;358.40;1049.60;;;;;;5115153;28;20380;-70
2021/01/27 08:29:56;;;;;;;26.60;19.77;;;359.10;972.80;;;;;;5114700;28;20094;-69
2021/01/27 08:32:28;;;;;;;24.48;19.75;;;384.30;921.60;;;;;;5114918;28;20140;-70
2021/01/27 08:35:01;;;;;;;20.85;16.80;;;384.80;896.00;;;;;;5114470;28;20028;-70
2021/01/27 08:37:35;;;;;;;20.98;17.98;;;435.20;819.20;;;;;;5114758;28;20369;-70
2021/01/27 08:40:21;;;;;;;26.80;20.87;;;409.80;870.40;;;;;;5114936;28;20046;-67
2021/01/27 08:42:53;;;;;;;31.33;24.00;;;333.70;998.40;;;;;;5114487;28;20343;-69
2021/01/27 08:45:22;;;;;;;27.88;21.20;;;307.80;1075.20;;;;;;5114630;28;20023;-68
2021/01/27 08:47:52;;;;;;;24.58;17.95;;;281.60;1203.20;;;;;;5114766;28;20024;-68
2021/01/27 08:50:37;;;;;;;29.35;20.27;;;231.00;1280.00;;;;;;5114865;28;20103;-70
2021/01/27 08:53:21;;;;;;;21.85;15.68;;;205.70;1382.40;;;;;;5114617;28;20016;-69
2021/01/27 08:55:47;;;;;;;26.05;17.67;;;205.40;1433.60;;;;;;5114415;28;20031;-67
2021/01/27 08:58:23;;;;;;;23.88;15.85;;;205.20;1459.20;;;;;;5113561;28;20031;-69
2021/01/27 09:00:51;;;;;;;22.45;16.30;;;230.50;1433.60;;;;;;5093325;28;20023;-67
2021/01/27 09:03:47;;;;;;;26.83;18.80;;;256.20;1280.00;;;;;;5111658;28;20115;-69
2021/01/27 09:06:30;;;;;;;24.88;17.17;;;256.40;1254.40;;;;;;5111583;28;20027;-68
2021/01/27 09:09:38;;;;;;;27.00;18.20;;;256.10;1280.00;;;;;;5111137;28;20504;-70
2021/01/27 09:12:09;;;;;;;28.00;18.15;;;230.90;1331.20;;;;;;5028640;28;20037;-69
2021/01/27 09:14:35;;;;;;;26.75;16.50;;;231.00;1305.60;;;;;;5028676;28;20036;-69
2021/01/27 09:17:04;;;;;;;42.58;25.45;;;256.80;1254.40;;;;;;5031434;28;20386;-70
2021/01/27 09:19:32;;;;;;;27.88;19.40;;;333.70;1049.60;;;;;;5049737;28;20040;-71
2021/01/27 09:22:27;;;;;;;31.75;21.10;;;358.90;972.80;;;;;;5049916;28;20106;-69
2021/01/27 09:24:55;;;;;;;23.75;16.10;;;384.50;896.00;;;;;;4971107;28;20031;-68
2021/01/27 09:27:30;;;;;;;39.85;25.65;;;384.60;844.80;;;;;;4968798;28;20046;-70
2021/01/27 09:30:06;;;;;;;37.00;25.08;;;409.90;844.80;;;;;;4968406;28;20039;-70
2021/01/27 09:32:34;;;;;;;60.05;38.45;;;409.80;870.40;;;;;;4965306;28;20055;-69
2021/01/27 09:35:17;;;;;;;53.65;36.63;;;384.90;819.20;;;;;;4968244;28;20097;-70
2021/01/27 09:37:58;;;;;;;43.58;32.85;;;384.90;819.20;;;;;;4967738;28;20026;-70
2021/01/27 09:40:29;;;;;;;29.02;17.35;;;384.80;844.80;;;;;;4968191;28;20039;-70
2021/01/27 09:42:59;;;;;;;38.15;26.98;;;384.50;819.20;;;;;;4971847;28;20035;-70
2021/01/27 09:45:28;;;;;;;45.15;30.48;;;358.70;921.60;;;;;;4972493;28;20034;-71
2021/01/27 09:47:54;;;;;;;49.05;28.60;;;358.50;921.60;;;;;;4988662;28;20487;-72
2021/01/27 09:50:20;;;;;;;43.53;26.55;;;333.40;947.20;;;;;;5031266;28;20504;-71
2021/01/27 09:52:53;;;;;;;41.53;27.25;;;307.70;1024.00;;;;;;5031181;28;20021;-71
2021/01/27 09:55:20;;;;;;;30.85;22.00;;;282.50;1075.20;;;;;;5031182;28;20120;-70
2021/01/27 09:57:50;;;;;;;25.38;16.98;;;281.80;1126.40;;;;;;5031173;28;20030;-69
2021/01/27 10:00:25;;;;;;;20.52;14.05;;;256.90;1152.00;;;;;;5038240;28;20104;-70
2021/01/27 10:02:51;;;;;;;26.27;17.08;;;256.80;1152.00;;;;;;5113940;28;20030;-70
2021/01/27 10:05:37;;;;;;;26.02;16.52;;;231.30;1203.20;;;;;;5113934;28;20047;-69
2021/01/27 10:08:22;;;;;;;24.70;15.18;;;230.80;1254.40;;;;;;5114081;28;20411;-71
2021/01/27 10:11:21;;;;;;;28.80;17.80;;;230.60;1254.40;;;;;;5113668;28;20028;-70
2021/01/27 10:13:46;;;;;;;31.52;19.35;;;231.00;1254.40;;;;;;5050931;28;20506;-71
2021/01/27 10:16:14;;;;;;;32.90;19.60;;;281.60;1152.00;;;;;;5050921;28;20036;-70
2021/01/27 10:18:42;;;;;;;22.17;14.77;;;256.80;1177.60;;;;;;5050872;28;20064;-69
2021/01/27 10:21:14;;;;;;;22.25;14.95;;;307.80;1049.60;;;;;;5051213;28;20036;-70
2021/01/27 10:23:48;;;;;;;22.50;15.50;;;332.80;1024.00;;;;;;5037862;28;20056;-70
2021/01/27 10:26:32;;;;;;;24.38;15.70;;;333.50;998.40;;;;;;5037850;28;20021;-70
2021/01/27 10:29:38;;;;;;;23.20;13.95;;;333.10;998.40;;;;;;5043559;28;20055;-68
2021/01/27 10:32:34;;;;;;;19.55;13.48;;;359.30;870.40;;;;;;4955658;28;20118;-68
2021/01/27 10:35:02;;;;;;;19.92;14.13;;;435.20;768.00;;;;;;4954237;28;20087;-69
2021/01/27 10:37:38;;;;;;;20.25;14.50;;;410.30;742.40;;;;;;4944422;29;20138;-68
2021/01/27 10:40:30;;;;;;;17.13;12.05;;;359.30;844.80;;;;;;4956182;29;20031;-69
2021/01/27 10:43:01;;;;;;;12.52;9.50;;;384.60;793.60;;;;;;4956046;28;20394;-68
2021/01/27 10:45:44;;;;;;;16.30;11.70;;;359.30;844.80;;;;;;4949928;29;20118;-65
2021/01/27 10:48:15;;;;;;;15.35;10.45;;;384.40;844.80;;;;;;4954757;29;20650;-68
2021/01/27 10:50:48;;;;;;;11.00;8.45;;;409.90;768.00;;;;;;5006881;28;20396;-67
2021/01/27 10:53:17;;;;;;;15.77;10.35;;;409.60;793.60;;;;;;5023602;28;20022;-68
2021/01/27 10:55:47;;;;;;;17.83;12.52;;;384.40;819.20;;;;;;5003126;28;20038;-66
2021/01/27 10:58:17;;;;;;;14.52;10.73;;;384.50;819.20;;;;;;4995169;28;20459;-66
2021/01/27 11:00:44;;;;;;;15.65;10.85;;;435.40;742.40;;;;;;5003334;28;20029;-65
2021/01/27 11:03:12;;;;;;;12.25;9.18;;;461.20;691.20;;;;;;5058135;28;20047;-70
2021/01/27 11:05:38;;;;;;;16.65;12.68;;;461.10;691.20;;;;;;5073247;28;20032;-67
2021/01/27 11:08:05;;;;;;;12.40;9.30;;;461.20;691.20;;;;;;5072753;28;20028;-65
2021/01/27 11:10:32;;;;;;;16.63;11.27;;;461.30;691.20;;;;;;5088430;28;20496;-63
2021/01/27 11:12:58;;;;;;;10.23;7.75;;;461.50;691.20;;;;;;5093126;28;20059;-68
2021/01/27 11:15:24;;;;;;;12.35;8.15;;;410.50;716.80;;;;;;5093592;28;20496;-67
2021/01/27 11:17:50;;;;;;;10.32;7.55;;;435.80;691.20;;;;;;5095623;28;20020;-66
2021/01/27 11:20:20;;;;;;;10.90;7.40;;;461.10;691.20;;;;;;5095286;28;20466;-68
2021/01/27 11:22:47;;;;;;;10.25;7.45;;;486.90;614.40;;;;;;5093575;28;20036;-67
2021/01/27 11:25:18;;;;;;;12.10;8.60;;;512.60;563.20;;;;;;5095417;28;20027;-70
2021/01/27 11:27:44;;;;;;;10.68;7.70;;;486.50;614.40;;;;;;5095760;27;20218;-68
2021/01/27 11:30:11;;;;;;;13.15;8.82;;;461.70;640.00;;;;;;5135783;27;20039;-67
2021/01/27 11:32:37;;;;;;;15.35;10.35;;;435.20;691.20;;;;;;5136013;27;20019;-66
2021/01/27 11:35:05;;;;;;;14.32;9.75;;;384.40;742.40;;;;;;5136153;27;20038;-68
2021/01/27 11:37:30;;;;;;;12.60;8.02;;;358.40;844.80;;;;;;5136062;27;20096;-66
2021/01/27 11:39:56;;;;;;;18.63;11.95;;;332.90;921.60;;;;;;5117584;27;20060;-67
2021/01/27 11:42:22;;;;;;;20.23;12.93;;;307.70;947.20;;;;;;5135870;27;20115;-71
2021/01/27 11:44:48;;;;;;;17.90;11.88;;;282.50;998.40;;;;;;5135168;27;20066;-69
2021/01/27 11:47:14;;;;;;;22.52;14.88;;;282.30;998.40;;;;;;5135861;27;20023;-69
2021/01/27 11:49:42;;;;;;;28.52;17.25;;;282.10;1024.00;;;;;;5133955;27;20065;-66
2021/01/27 11:52:08;;;;;;;20.60;13.73;;;281.70;1075.20;;;;;;5133428;27;20111;-71
2021/01/27 11:54:34;;;;;;;25.02;15.20;;;281.90;1075.20;;;;;;5135670;27;20027;-65
2021/01/27 11:57:01;;;;;;;24.10;15.80;;;281.80;1075.20;;;;;;5134855;27;20019;-71
2021/01/27 11:59:26;;;;;;;18.52;11.43;;;281.60;1100.80;;;;;;5134317;27;20074;-66
2021/01/27 12:01:52;;;;;;;19.40;12.90;;;281.70;1075.20;;;;;;5134104;27;20457;-67
2021/01/27 12:04:18;;;;;;;22.80;14.23;;;307.20;1049.60;;;;;;5134224;27;20054;-64
2021/01/27 12:06:43;;;;;;;35.67;18.05;;;282.50;1024.00;;;;;;5133805;27;20026;-66
2021/01/27 12:09:09;;;;;;;17.63;10.73;;;282.40;1024.00;;;;;;5133619;27;20071;-68
2021/01/27 12:11:35;;;;;;;14.00;8.88;;;281.80;1049.60;;;;;;5134058;27;20709;-65
2021/01/27 12:14:00;;;;;;;20.67;11.35;;;281.60;1049.60;;;;;;5133970;27;20035;-66
2021/01/27 12:16:26;;;;;;;13.18;8.27;;;256.30;1049.60;;;;;;5133653;27;20034;-67
2021/01/27 12:18:52;;;;;;;30.83;18.45;;;231.10;1100.80;;;;;;5112375;27;20035;-69
2021/01/27 12:21:17;;;;;;;53.05;24.20;;;231.20;1152.00;;;;;;5132946;27;20108;-61
2021/01/27 12:23:43;;;;;;;31.90;13.38;;;231.10;1152.00;;;;;;5133863;27;20023;-66
2021/01/27 12:26:09;;;;;;;88.28;30.98;;;231.00;1177.60;;;;;;5124891;27;20042;-67
2021/01/27 12:28:35;;;;;;;216.73;66.72;;;230.90;1177.60;;;;;;5115005;27;20070;-67
2021/01/27 12:31:00;;;;;;;98.10;36.85;;;231.00;1177.60;;;;;;5132937;27;20019;-64
2021/01/27 12:33:26;;;;;;;32.28;18.10;;;230.60;1203.20;;;;;;5115124;27;20035;-66
2021/01/27 12:35:52;;;;;;;27.05;16.33;;;205.50;1280.00;;;;;;5133579;27;20068;-67